Puspokladany, Hungary
Current Conditions -  °F | °C
As of 10:15 AM on Friday 24 Oct 2014 (Local Time) from LHDC Reporting Station
Moderate Rain Moderate Rain  
Wind Chill: 37°   Ceiling: 1000
Heat Index: 43°   Visibility: 2.6mi
Dew Point: 43°   Wind: 12mph
Humidity: 100%   Direction: 30°NNE
Pressure: 29.97"   Gusts: NA
Location:  47.32°N, 21.12°E
Report Text: LHDC 240815Z 03010KT 4200 RADZ SCT005 OVC010 06/06 Q1015 NOSIG
Loading
Personal Weather Stations






























Interactive Weather Map
Tropical Storm Tracking
New forecast layout! Learn more

10-Day Weather Forecast

Advertisements
Track Severe Weather on mobile